createdAt,value
2019-02-22T00:01:32.436Z,9.24
2019-02-22T00:04:03.072Z,9.24
2019-02-22T00:06:33.547Z,9.19
2019-02-22T00:09:05.312Z,9.18
2019-02-22T00:11:35.814Z,9.16
2019-02-22T00:14:06.225Z,9.14
2019-02-22T00:16:36.510Z,9.12
2019-02-22T00:19:07.002Z,9.11
2019-02-22T00:21:37.359Z,9.07
2019-02-22T00:24:07.785Z,9.05
2019-02-22T00:26:38.219Z,9.05
2019-02-22T00:29:08.530Z,9.00
2019-02-22T00:31:39.109Z,8.99
2019-02-22T00:34:09.417Z,8.99
2019-02-22T00:36:40.076Z,8.95
2019-02-22T00:39:10.539Z,8.93
2019-02-22T00:41:41.039Z,8.94
2019-02-22T00:44:11.495Z,8.94
2019-02-22T00:46:41.823Z,8.97
2019-02-22T00:49:12.311Z,8.98
2019-02-22T00:51:42.759Z,8.97
2019-02-22T00:54:13.080Z,8.98
2019-02-22T00:56:43.385Z,8.96
2019-02-22T00:59:13.862Z,8.92
2019-02-22T01:01:44.260Z,8.87
2019-02-22T01:04:14.721Z,8.83
2019-02-22T01:06:45.123Z,8.80
2019-02-22T01:09:15.530Z,8.83
2019-02-22T01:11:45.884Z,8.80
2019-02-22T01:14:16.339Z,8.78
2019-02-22T01:16:46.823Z,8.79
2019-02-22T01:19:17.256Z,8.78
2019-02-22T01:21:47.824Z,8.76
2019-02-22T01:24:18.280Z,8.81
2019-02-22T01:26:48.627Z,8.81
2019-02-22T01:29:19.091Z,8.83
2019-02-22T01:31:49.540Z,8.83
2019-02-22T01:34:19.832Z,8.86
2019-02-22T01:36:50.301Z,8.82
2019-02-22T01:39:20.678Z,8.82
2019-02-22T01:41:51.043Z,8.85
2019-02-22T01:44:25.174Z,8.88
2019-02-22T01:46:55.570Z,8.89
2019-02-22T01:49:25.984Z,8.87
2019-02-22T01:51:56.445Z,8.80
2019-02-22T01:54:26.839Z,8.78
2019-02-22T01:56:57.294Z,8.76
2019-02-22T01:59:27.745Z,8.77
2019-02-22T02:01:58.079Z,8.79
2019-02-22T02:04:28.534Z,8.80
2019-02-22T02:06:58.953Z,8.83
2019-02-22T02:09:29.462Z,8.82
2019-02-22T02:12:01.836Z,8.81
2019-02-22T02:14:32.003Z,8.84
2019-02-22T02:17:02.427Z,8.84
2019-02-22T02:19:32.709Z,8.81
2019-02-22T02:22:03.074Z,8.81
2019-02-22T02:24:33.488Z,8.85
2019-02-22T02:27:03.844Z,8.90
2019-02-22T02:29:34.253Z,8.89
2019-02-22T02:32:04.598Z,8.93
2019-02-22T02:34:35.041Z,8.96
2019-02-22T02:37:05.497Z,8.92
2019-02-22T02:39:35.873Z,8.84
2019-02-22T02:42:06.257Z,8.82
2019-02-22T02:44:36.717Z,8.82
2019-02-22T02:47:07.196Z,8.82
2019-02-22T02:49:37.638Z,8.81
2019-02-22T02:52:08.081Z,8.78
2019-02-22T02:54:38.475Z,8.78
2019-02-22T02:57:08.899Z,8.76
2019-02-22T02:59:39.276Z,8.80
2019-02-22T03:02:17.761Z,8.81
2019-02-22T03:04:48.087Z,8.78
2019-02-22T03:07:36.037Z,8.78
2019-02-22T03:10:07.738Z,8.81
2019-02-22T03:12:38.114Z,8.81
2019-02-22T03:15:10.123Z,8.78
2019-02-22T03:17:40.495Z,8.74
2019-02-22T03:20:11.303Z,8.74
2019-02-22T03:22:41.726Z,8.77
2019-02-22T03:25:12.162Z,8.78
2019-02-22T03:27:42.526Z,8.81
2019-02-22T03:30:13.043Z,8.79
2019-02-22T03:32:43.403Z,8.81
2019-02-22T03:35:13.829Z,8.80
2019-02-22T03:37:44.229Z,8.80
2019-02-22T03:40:14.607Z,8.79
2019-02-22T03:42:45.073Z,8.78
2019-02-22T03:45:15.363Z,8.82
2019-02-22T03:47:45.761Z,8.83
2019-02-22T03:50:16.149Z,8.78
2019-02-22T03:52:50.328Z,8.74
2019-02-22T03:55:20.811Z,8.73
2019-02-22T03:57:51.289Z,8.76
2019-02-22T04:00:21.741Z,8.78
2019-02-22T04:02:52.184Z,8.76
2019-02-22T04:05:22.562Z,8.71
2019-02-22T04:07:52.892Z,8.67
2019-02-22T04:10:23.396Z,8.66
2019-02-22T04:12:53.955Z,8.66
2019-02-22T04:15:24.275Z,8.66
2019-02-22T04:17:54.719Z,8.65
2019-02-22T04:20:25.132Z,8.61
2019-02-22T04:22:55.485Z,8.62
2019-02-22T04:25:25.865Z,8.60
2019-02-22T04:27:56.303Z,8.60
2019-02-22T04:30:26.744Z,8.61
2019-02-22T04:32:57.182Z,8.59
2019-02-22T04:35:27.509Z,8.63
2019-02-22T04:37:57.851Z,8.64
2019-02-22T04:40:28.164Z,8.62
2019-02-22T04:42:58.630Z,8.61
2019-02-22T04:45:28.926Z,8.62
2019-02-22T04:47:59.259Z,8.62
2019-02-22T04:50:29.538Z,8.59
2019-02-22T04:52:59.999Z,8.54
2019-02-22T04:55:30.434Z,8.52
2019-02-22T04:58:00.870Z,8.50
2019-02-22T05:00:31.289Z,8.43
2019-02-22T05:03:01.610Z,8.35
2019-02-22T05:05:31.902Z,8.33
2019-02-22T05:08:02.243Z,8.30
2019-02-22T05:10:32.675Z,8.28
2019-02-22T05:13:03.019Z,8.22
2019-02-22T05:15:33.441Z,8.19
2019-02-22T05:18:03.823Z,8.20
2019-02-22T05:20:34.161Z,8.18
2019-02-22T05:23:07.412Z,8.18
2019-02-22T05:25:36.989Z,8.22
2019-02-22T05:28:07.381Z,8.24
2019-02-22T05:30:37.829Z,8.24
2019-02-22T05:33:08.241Z,8.26
2019-02-22T05:35:38.707Z,8.25
2019-02-22T05:38:09.230Z,8.22
2019-02-22T05:40:39.674Z,8.19
2019-02-22T05:43:09.981Z,8.25
2019-02-22T05:45:40.311Z,8.25
2019-02-22T05:48:10.721Z,8.21
2019-02-22T05:50:41.163Z,8.21
2019-02-22T05:53:11.548Z,8.23
2019-02-22T05:55:44.133Z,8.24
2019-02-22T05:58:14.002Z,8.19
2019-02-22T06:00:44.485Z,8.13
2019-02-22T06:03:15.002Z,8.13
2019-02-22T06:05:45.444Z,8.19
2019-02-22T06:08:15.923Z,8.18
2019-02-22T06:10:46.412Z,8.15
2019-02-22T06:13:16.817Z,8.15
2019-02-22T06:15:47.191Z,8.16
2019-02-22T06:18:17.502Z,8.18
2019-02-22T06:20:48.082Z,8.21
2019-02-22T06:23:18.558Z,8.19
2019-02-22T06:25:49.015Z,8.20
2019-02-22T06:28:19.398Z,8.17
2019-02-22T06:30:49.853Z,8.17
2019-02-22T06:33:20.272Z,8.15
2019-02-22T06:35:50.671Z,8.16
2019-02-22T06:38:20.996Z,8.15
2019-02-22T06:40:51.360Z,8.15
2019-02-22T06:43:21.657Z,8.19
2019-02-22T06:45:52.094Z,8.23
2019-02-22T06:48:22.413Z,8.27
2019-02-22T06:50:52.858Z,8.30
2019-02-22T06:53:23.609Z,8.33
2019-02-22T06:55:53.984Z,8.32
2019-02-22T06:58:24.313Z,8.32
2019-02-22T07:00:54.806Z,8.33
2019-02-22T07:03:25.104Z,8.27
2019-02-22T07:05:55.504Z,8.24
2019-02-22T07:08:26.058Z,8.30
2019-02-22T07:11:18.331Z,8.29
2019-02-22T07:13:48.720Z,8.32
2019-02-22T07:16:19.096Z,8.36
2019-02-22T07:18:50.003Z,8.38
2019-02-22T07:21:20.529Z,8.34
2019-02-22T07:23:50.945Z,8.31
2019-02-22T07:26:21.371Z,8.31
2019-02-22T07:28:51.857Z,8.32
2019-02-22T07:31:22.272Z,8.32
2019-02-22T07:33:52.638Z,8.32
2019-02-22T07:36:23.005Z,8.37
2019-02-22T07:38:53.474Z,8.40
2019-02-22T07:41:23.814Z,8.47
2019-02-22T07:43:54.217Z,8.41
2019-02-22T07:46:24.589Z,8.39
2019-02-22T07:48:55.029Z,8.39
2019-02-22T07:51:25.386Z,8.40
2019-02-22T07:53:55.712Z,8.40
2019-02-22T07:56:26.062Z,8.48
2019-02-22T07:58:56.523Z,8.54
2019-02-22T08:01:27.115Z,8.51
2019-02-22T08:03:57.725Z,8.55
2019-02-22T08:06:28.221Z,8.61
2019-02-22T08:08:58.681Z,8.67
2019-02-22T08:11:29.145Z,8.76
2019-02-22T08:13:59.586Z,8.82
2019-02-22T08:16:30.023Z,8.93
2019-02-22T08:19:01.834Z,9.03
2019-02-22T08:21:32.455Z,9.07
2019-02-22T08:24:02.801Z,9.09
2019-02-22T08:26:33.371Z,9.10
2019-02-22T08:29:03.686Z,9.14
2019-02-22T08:31:34.074Z,9.16
2019-02-22T08:34:04.516Z,9.15
2019-02-22T08:36:34.935Z,9.17
2019-02-22T08:39:05.991Z,9.15
2019-02-22T08:41:36.332Z,9.10
2019-02-22T08:44:06.749Z,9.06
2019-02-22T08:46:37.206Z,9.04
2019-02-22T08:49:07.651Z,9.04
2019-02-22T08:51:38.080Z,9.07
2019-02-22T08:54:08.510Z,9.12
2019-02-22T08:56:38.893Z,9.19
2019-02-22T08:59:09.171Z,9.26
2019-02-22T09:01:39.611Z,9.26
2019-02-22T09:04:09.876Z,9.22
2019-02-22T09:06:40.346Z,9.18
2019-02-22T09:09:11.917Z,9.15
2019-02-22T09:11:42.378Z,9.12
2019-02-22T09:14:12.794Z,9.05
2019-02-22T09:16:43.223Z,9.14
2019-02-22T09:19:13.524Z,9.25
2019-02-22T09:21:43.966Z,9.31
2019-02-22T09:24:14.423Z,9.34
2019-02-22T09:26:44.847Z,9.43
2019-02-22T09:29:15.331Z,9.52
2019-02-22T09:31:45.732Z,9.62
2019-02-22T09:34:16.079Z,9.71
2019-02-22T09:36:46.485Z,9.73
2019-02-22T09:39:16.928Z,9.73
2019-02-22T09:41:47.361Z,9.78
2019-02-22T09:44:17.816Z,9.79
2019-02-22T09:46:48.244Z,9.83
2019-02-22T09:49:18.650Z,9.90
2019-02-22T09:51:48.959Z,9.90
2019-02-22T09:54:19.369Z,9.96
2019-02-22T09:56:50.954Z,9.98
2019-02-22T09:59:21.562Z,10.05
2019-02-22T10:01:52.040Z,10.16
2019-02-22T10:04:22.552Z,10.17
2019-02-22T10:06:52.995Z,10.18
2019-02-22T10:09:23.430Z,10.16
2019-02-22T10:11:53.809Z,10.21
2019-02-22T10:14:24.228Z,10.34
2019-02-22T10:16:54.591Z,10.43
2019-02-22T10:19:25.030Z,10.38
2019-02-22T10:21:57.516Z,10.42
2019-02-22T10:24:27.509Z,10.47
2019-02-22T10:26:57.985Z,10.57
2019-02-22T10:29:28.453Z,10.68
2019-02-22T10:31:59.087Z,10.80
2019-02-22T10:34:29.606Z,10.89
2019-02-22T10:36:59.803Z,10.87
2019-02-22T10:39:31.350Z,10.80
2019-02-22T10:42:01.733Z,10.81
2019-02-22T10:44:32.094Z,10.83
2019-02-22T10:47:02.592Z,10.98
2019-02-22T10:49:32.987Z,11.08
2019-02-22T10:52:03.433Z,11.15
2019-02-22T10:54:33.862Z,11.21
2019-02-22T10:57:04.261Z,11.28
2019-02-22T10:59:34.638Z,11.30
2019-02-22T11:02:05.038Z,11.24
2019-02-22T11:04:35.364Z,11.32
2019-02-22T11:07:05.796Z,11.21
2019-02-22T11:09:36.219Z,11.24
2019-02-22T11:12:09.546Z,11.29
2019-02-22T11:14:39.907Z,11.28
2019-02-22T11:17:10.397Z,11.28
2019-02-22T11:19:40.942Z,11.29
2019-02-22T11:22:11.612Z,11.38
2019-02-22T11:24:42.064Z,11.67
2019-02-22T11:27:12.461Z,12.19
2019-02-22T11:29:42.964Z,12.69
2019-02-22T11:32:13.485Z,13.03
2019-02-22T11:34:43.874Z,13.32
2019-02-22T11:37:14.244Z,13.35
2019-02-22T11:39:44.747Z,13.26
2019-02-22T11:42:15.177Z,13.19
2019-02-22T11:44:45.605Z,13.27
2019-02-22T11:47:16.258Z,13.22
2019-02-22T11:49:46.775Z,12.98
2019-02-22T11:52:17.252Z,12.72
2019-02-22T11:54:48.202Z,12.61
2019-02-22T11:57:19.605Z,12.64
2019-02-22T11:59:50.144Z,12.41
2019-02-22T12:02:20.591Z,12.35
2019-02-22T12:04:50.971Z,12.45
2019-02-22T12:07:21.506Z,12.67
2019-02-22T12:09:51.820Z,12.89
2019-02-22T12:12:22.221Z,12.88
2019-02-22T12:14:52.626Z,12.73
2019-02-22T12:17:22.965Z,12.58
2019-02-22T12:19:53.403Z,12.32
2019-02-22T12:22:23.835Z,12.24
2019-02-22T12:24:54.226Z,12.29
2019-02-22T12:27:24.559Z,12.29
2019-02-22T12:29:55.082Z,12.19
2019-02-22T12:32:25.418Z,12.15
2019-02-22T12:34:55.863Z,12.14
2019-02-22T12:37:26.331Z,12.09
2019-02-22T12:39:56.719Z,11.91
2019-02-22T12:42:27.187Z,11.84
2019-02-22T12:45:02.973Z,11.71
2019-02-22T12:47:29.667Z,11.64
2019-02-22T12:50:00.144Z,11.60
2019-02-22T12:52:30.550Z,11.65
2019-02-22T12:55:00.960Z,11.71
2019-02-22T12:57:31.346Z,11.81
2019-02-22T13:00:01.813Z,11.92
2019-02-22T13:02:32.232Z,12.01
2019-02-22T13:05:02.743Z,12.14
2019-02-22T13:07:33.273Z,12.16
2019-02-22T13:10:03.594Z,12.09
2019-02-22T13:12:34.031Z,12.00
2019-02-22T13:15:13.653Z,11.93
2019-02-22T13:17:36.868Z,11.87
2019-02-22T13:20:08.234Z,11.92
2019-02-22T13:22:38.795Z,11.96
2019-02-22T13:25:09.438Z,11.91
2019-02-22T13:27:39.881Z,11.78
2019-02-22T13:30:11.745Z,11.64
2019-02-22T13:32:42.379Z,11.44
2019-02-22T13:35:13.027Z,11.30
2019-02-22T13:37:43.492Z,11.30
2019-02-22T13:40:14.790Z,11.30
2019-02-22T13:42:45.194Z,11.41
2019-02-22T13:45:26.185Z,11.53
2019-02-22T13:47:48.030Z,11.59
2019-02-22T13:50:18.418Z,11.63
2019-02-22T13:52:48.843Z,11.73
2019-02-22T13:55:19.232Z,11.84
2019-02-22T13:57:49.677Z,11.91
2019-02-22T14:00:20.174Z,11.85
2019-02-22T14:02:50.829Z,11.94
2019-02-22T14:05:21.277Z,12.11
2019-02-22T14:07:55.875Z,12.18
2019-02-22T14:10:26.700Z,12.24
2019-02-22T14:12:57.156Z,12.12
2019-02-22T14:15:37.534Z,11.69
2019-02-22T14:17:59.726Z,11.65
2019-02-22T14:20:30.132Z,11.58
2019-02-22T14:23:00.521Z,11.59
2019-02-22T14:25:30.914Z,11.61
2019-02-22T14:28:01.327Z,11.58
2019-02-22T14:30:31.690Z,11.71
2019-02-22T14:33:02.194Z,11.66
2019-02-22T14:35:32.691Z,11.70
2019-02-22T14:38:03.167Z,11.68
2019-02-22T14:40:33.615Z,11.63
2019-02-22T14:43:04.145Z,11.57
2019-02-22T14:45:34.637Z,11.45
2019-02-22T14:48:05.039Z,11.34
2019-02-22T14:50:35.655Z,11.31
2019-02-22T14:53:06.159Z,11.34
2019-02-22T14:55:36.447Z,11.35
2019-02-22T14:58:06.950Z,11.33
2019-02-22T15:00:37.398Z,11.30
2019-02-22T15:03:07.785Z,11.30
2019-02-22T15:05:38.263Z,11.26
2019-02-22T15:08:08.721Z,11.20
2019-02-22T15:10:39.099Z,11.09
2019-02-22T15:13:12.513Z,11.06
2019-02-22T15:16:03.647Z,11.04
2019-02-22T15:18:32.751Z,11.04
2019-02-22T15:21:03.102Z,11.05
2019-02-22T15:23:33.400Z,11.02
2019-02-22T15:26:03.803Z,11.02
2019-02-22T15:28:34.180Z,11.01
2019-02-22T15:31:04.857Z,10.86
2019-02-22T15:33:35.352Z,10.82
2019-02-22T15:36:06.561Z,10.76
2019-02-22T15:38:36.892Z,10.71
2019-02-22T15:41:09.399Z,10.65
2019-02-22T15:43:39.489Z,10.61
2019-02-22T15:46:12.491Z,10.58
2019-02-22T15:48:42.027Z,10.54
2019-02-22T15:51:13.164Z,10.47
2019-02-22T15:53:44.077Z,10.34
2019-02-22T15:56:14.511Z,10.32
2019-02-22T15:58:46.322Z,10.26
2019-02-22T16:01:16.697Z,10.24
2019-02-22T16:04:12.026Z,10.20
2019-02-22T16:06:42.433Z,10.15
2019-02-22T16:09:13.054Z,10.10
2019-02-22T16:11:43.405Z,10.10
2019-02-22T16:14:13.726Z,10.11
2019-02-22T16:16:44.194Z,10.08
2019-02-22T16:19:14.669Z,10.03
2019-02-22T16:21:45.116Z,9.96
2019-02-22T16:24:15.430Z,9.95
2019-02-22T16:26:45.741Z,9.90
2019-02-22T16:29:16.098Z,9.85
2019-02-22T16:31:46.549Z,9.78
2019-02-22T16:34:16.982Z,9.74
2019-02-22T16:36:47.429Z,9.68
2019-02-22T16:39:17.756Z,9.65
2019-02-22T16:41:48.043Z,9.59
2019-02-22T16:44:18.440Z,9.58
2019-02-22T16:46:48.793Z,9.53
2019-02-22T16:49:19.272Z,9.50
2019-02-22T16:51:49.822Z,9.47
2019-02-22T16:54:20.192Z,9.42
2019-02-22T16:56:50.612Z,9.40
2019-02-22T16:59:21.917Z,9.38
2019-02-22T17:01:52.336Z,9.39
2019-02-22T17:04:22.786Z,9.37
2019-02-22T17:06:53.098Z,9.33
2019-02-22T17:09:23.564Z,9.35
2019-02-22T17:11:54.015Z,9.34
2019-02-22T17:14:24.493Z,9.37
2019-02-22T17:16:54.985Z,9.38
2019-02-22T17:19:25.319Z,9.38
2019-02-22T17:21:55.626Z,9.38
2019-02-22T17:24:26.051Z,9.39
2019-02-22T17:26:56.435Z,9.38
2019-02-22T17:29:26.874Z,9.35
2019-02-22T17:31:57.282Z,9.31
2019-02-22T17:34:27.736Z,9.24
2019-02-22T17:36:58.066Z,9.19
2019-02-22T17:39:28.404Z,9.13
2019-02-22T17:41:58.880Z,9.06
2019-02-22T17:44:29.131Z,8.96
2019-02-22T17:46:59.540Z,8.84
2019-02-22T17:49:29.962Z,8.78
2019-02-22T17:52:00.175Z,8.77
2019-02-22T17:54:30.593Z,8.73
2019-02-22T17:57:00.938Z,8.72
2019-02-22T17:59:31.326Z,8.68
2019-02-22T18:02:01.707Z,8.61
2019-02-22T18:04:32.056Z,8.54
2019-02-22T18:07:02.416Z,8.49
2019-02-22T18:09:32.930Z,8.42
2019-02-22T18:12:03.316Z,8.41
2019-02-22T18:14:33.725Z,8.39
2019-02-22T18:17:08.413Z,8.34
2019-02-22T18:19:36.140Z,8.35
2019-02-22T18:22:06.585Z,8.45
2019-02-22T18:24:37.025Z,8.48
2019-02-22T18:27:07.361Z,8.50
2019-02-22T18:29:37.905Z,8.54
2019-02-22T18:32:08.350Z,8.55
2019-02-22T18:34:38.797Z,8.65
2019-02-22T18:37:09.185Z,8.71
2019-02-22T18:39:39.656Z,8.77
2019-02-22T18:42:10.101Z,8.85
2019-02-22T18:44:40.547Z,8.87
2019-02-22T18:47:19.026Z,8.88
2019-02-22T18:49:43.015Z,8.91
2019-02-22T18:52:13.346Z,8.88
2019-02-22T18:54:46.171Z,8.82
2019-02-22T18:57:15.983Z,8.75
2019-02-22T18:59:46.402Z,8.64
2019-02-22T19:02:16.938Z,8.48
2019-02-22T19:04:47.277Z,8.37
2019-02-22T19:07:17.796Z,8.35
2019-02-22T19:09:48.355Z,8.37
2019-02-22T19:12:18.786Z,8.39
2019-02-22T19:14:49.077Z,8.45
2019-02-22T19:17:29.893Z,8.53
2019-02-22T19:19:51.682Z,8.53
2019-02-22T19:22:22.110Z,8.45
2019-02-22T19:24:52.634Z,8.43
2019-02-22T19:27:23.057Z,8.48
2019-02-22T19:29:53.448Z,8.49
2019-02-22T19:32:23.898Z,8.47
2019-02-22T19:34:54.591Z,8.36
2019-02-22T19:37:26.046Z,8.36
2019-02-22T19:39:56.451Z,8.33
2019-02-22T19:42:26.933Z,8.27
2019-02-22T19:44:57.383Z,8.20
2019-02-22T19:47:27.703Z,8.16
2019-02-22T19:49:58.124Z,8.09
2019-02-22T19:52:28.460Z,8.04
2019-02-22T19:54:58.782Z,7.96
2019-02-22T19:57:29.222Z,7.92
2019-02-22T19:59:59.716Z,7.84
2019-02-22T20:02:30.145Z,7.87
2019-02-22T20:05:00.493Z,7.89
2019-02-22T20:07:30.749Z,7.81
2019-02-22T20:10:02.982Z,7.72
2019-02-22T20:12:33.491Z,7.57
2019-02-22T20:15:04.193Z,7.46
2019-02-22T20:17:34.672Z,7.35
2019-02-22T20:20:06.003Z,7.23
2019-02-22T20:22:36.288Z,7.11
2019-02-22T20:25:07.190Z,7.04
2019-02-22T20:27:37.692Z,6.95
2019-02-22T20:30:10.595Z,6.90
2019-02-22T20:32:41.122Z,6.88
2019-02-22T20:35:15.065Z,6.87
2019-02-22T20:37:52.611Z,6.86
2019-02-22T20:40:17.569Z,6.89
2019-02-22T20:42:48.000Z,6.90
2019-02-22T20:45:18.414Z,6.90
2019-02-22T20:47:48.826Z,6.95
2019-02-22T20:50:19.121Z,6.97
2019-02-22T20:52:49.573Z,7.03
2019-02-22T20:55:19.992Z,7.04
2019-02-22T20:57:50.412Z,7.03
2019-02-22T21:00:20.843Z,7.02
2019-02-22T21:02:51.216Z,7.06
2019-02-22T21:05:21.633Z,7.10
2019-02-22T21:07:52.163Z,7.14
2019-02-22T21:10:22.561Z,7.16
2019-02-22T21:12:52.956Z,7.19
2019-02-22T21:15:23.463Z,7.18
2019-02-22T21:17:53.766Z,7.16
2019-02-22T21:20:24.186Z,7.16
2019-02-22T21:22:54.579Z,7.16
2019-02-22T21:25:24.918Z,7.16
2019-02-22T21:27:55.439Z,7.15
2019-02-22T21:30:25.892Z,7.17
2019-02-22T21:32:57.638Z,7.10
2019-02-22T21:35:27.960Z,7.06
2019-02-22T21:37:58.290Z,6.97
2019-02-22T21:40:28.620Z,6.89
2019-02-22T21:42:59.055Z,6.92
2019-02-22T21:45:29.893Z,6.81
2019-02-22T21:48:00.372Z,6.84
2019-02-22T21:50:30.808Z,6.72
2019-02-22T21:53:01.279Z,6.58
2019-02-22T21:55:31.650Z,6.43
2019-02-22T21:58:02.089Z,6.34
2019-02-22T22:00:32.911Z,6.20
2019-02-22T22:03:03.464Z,6.16
2019-02-22T22:05:34.128Z,6.01
2019-02-22T22:08:04.606Z,5.93
2019-02-22T22:10:34.939Z,5.85
2019-02-22T22:13:05.477Z,5.73
2019-02-22T22:15:35.787Z,5.58
2019-02-22T22:18:06.197Z,5.54
2019-02-22T22:20:36.574Z,5.49
2019-02-22T22:23:07.068Z,5.49
2019-02-22T22:25:37.457Z,5.41
2019-02-22T22:28:07.909Z,5.34
2019-02-22T22:30:38.338Z,5.25
2019-02-22T22:33:08.781Z,5.26
2019-02-22T22:35:39.212Z,5.24
2019-02-22T22:38:09.704Z,5.18
2019-02-22T22:40:40.145Z,5.07
2019-02-22T22:43:10.547Z,5.05
2019-02-22T22:45:40.862Z,4.96
2019-02-22T22:48:11.296Z,4.90
2019-02-22T22:50:41.721Z,4.86
2019-02-22T22:53:12.114Z,4.84
2019-02-22T22:55:42.400Z,4.85
2019-02-22T22:58:12.833Z,4.89
2019-02-22T23:01:24.964Z,4.97
2019-02-22T23:03:55.496Z,4.96
2019-02-22T23:06:25.942Z,4.96
2019-02-22T23:08:56.408Z,5.01
2019-02-22T23:11:26.866Z,4.99
2019-02-22T23:13:57.160Z,5.02
2019-02-22T23:16:27.498Z,5.06
2019-02-22T23:19:01.947Z,4.95
2019-02-22T23:21:30.290Z,4.97
2019-02-22T23:24:00.663Z,5.04
2019-02-22T23:26:31.166Z,5.05
2019-02-22T23:29:01.972Z,4.97
2019-02-22T23:31:32.600Z,4.90
2019-02-22T23:34:03.028Z,4.91
2019-02-22T23:36:33.480Z,4.89
2019-02-22T23:39:04.942Z,4.81
2019-02-22T23:41:35.378Z,4.73
2019-02-22T23:44:06.036Z,4.68
2019-02-22T23:46:36.517Z,4.63
2019-02-22T23:49:13.112Z,4.60
2019-02-22T23:51:39.255Z,4.59
2019-02-22T23:54:09.594Z,4.58
2019-02-22T23:56:39.949Z,4.53
2019-02-22T23:59:10.380Z,4.45
